createdAt,value
2022-09-04T00:00:03.815Z,21.65
2022-09-04T00:02:42.267Z,21.68
2022-09-04T00:05:35.394Z,21.85
2022-09-04T00:08:15.020Z,21.79
2022-09-04T00:10:55.710Z,21.75
2022-09-04T00:13:36.383Z,21.78
2022-09-04T00:16:12.476Z,22.07
2022-09-04T00:19:36.345Z,21.85
2022-09-04T00:22:24.004Z,21.78
2022-09-04T00:25:33.423Z,21.60
2022-09-04T00:28:09.164Z,21.54
2022-09-04T00:30:43.562Z,21.46
2022-09-04T00:33:17.736Z,21.48
2022-09-04T00:35:58.577Z,21.56
2022-09-04T00:38:29.100Z,21.52
2022-09-04T00:41:13.253Z,21.41
2022-09-04T00:43:46.696Z,21.51
2022-09-04T00:46:39.021Z,21.67
2022-09-04T00:49:51.122Z,21.64
2022-09-04T00:52:38.046Z,21.54
2022-09-04T00:55:27.030Z,21.69
2022-09-04T00:58:16.446Z,21.71
2022-09-04T01:00:47.443Z,21.62
2022-09-04T01:03:14.972Z,21.58
2022-09-04T01:06:04.040Z,21.54
2022-09-04T01:08:56.574Z,21.49
2022-09-04T01:11:57.458Z,21.56
2022-09-04T01:14:40.243Z,21.46
2022-09-04T01:17:37.312Z,21.49
2022-09-04T01:20:20.328Z,21.38
2022-09-04T01:23:06.749Z,21.43
2022-09-04T01:25:52.347Z,21.43
2022-09-04T01:28:50.672Z,21.49
2022-09-04T01:31:21.122Z,21.62
2022-09-04T01:34:13.371Z,21.57
2022-09-04T01:36:56.216Z,21.46
2022-09-04T01:39:30.465Z,21.37
2022-09-04T01:42:08.743Z,21.28
2022-09-04T01:44:37.212Z,21.20
2022-09-04T01:47:16.738Z,21.19
2022-09-04T01:49:57.278Z,21.25
2022-09-04T01:52:55.483Z,21.34
2022-09-04T01:55:53.124Z,21.33
2022-09-04T01:58:47.066Z,21.27
2022-09-04T02:01:32.541Z,21.34
2022-09-04T02:04:32.888Z,21.37
2022-09-04T02:07:08.651Z,21.46
2022-09-04T02:09:48.404Z,21.51
2022-09-04T02:12:49.195Z,21.49
2022-09-04T02:15:27.020Z,21.46
2022-09-04T02:18:24.744Z,21.56
2022-09-04T02:21:18.303Z,21.57
2022-09-04T02:23:56.635Z,21.56
2022-09-04T02:26:46.484Z,21.59
2022-09-04T02:29:28.956Z,21.64
2022-09-04T02:32:00.604Z,21.64
2022-09-04T02:34:42.951Z,21.60
2022-09-04T02:37:52.290Z,21.61
2022-09-04T02:40:40.532Z,21.50
2022-09-04T02:43:21.090Z,21.46
2022-09-04T02:46:09.700Z,21.46
2022-09-04T02:49:07.751Z,21.40
2022-09-04T02:52:17.471Z,21.36
2022-09-04T02:55:18.715Z,21.42
2022-09-04T02:57:56.647Z,21.41
2022-09-04T03:00:44.077Z,21.47
2022-09-04T03:03:18.714Z,21.45
2022-09-04T03:05:51.329Z,21.51
2022-09-04T03:08:29.882Z,21.56
2022-09-04T03:11:23.565Z,21.56
2022-09-04T03:14:02.379Z,21.62
2022-09-04T03:16:40.307Z,21.59
2022-09-04T03:19:36.439Z,21.59
2022-09-04T03:22:13.429Z,21.61
2022-09-04T03:24:50.098Z,21.62
2022-09-04T03:27:19.094Z,21.62
2022-09-04T03:29:51.466Z,21.65
2022-09-04T03:32:19.005Z,21.64
2022-09-04T03:35:05.179Z,21.50
2022-09-04T03:37:41.485Z,21.59
2022-09-04T03:40:19.822Z,21.52
2022-09-04T03:43:19.666Z,21.56
2022-09-04T03:46:14.845Z,21.52
2022-09-04T03:48:54.227Z,21.61
2022-09-04T03:51:35.312Z,21.43
2022-09-04T03:54:31.715Z,21.42
2022-09-04T03:57:19.081Z,21.30
2022-09-04T04:00:07.231Z,21.35
2022-09-04T04:03:17.573Z,21.23
2022-09-04T04:06:08.758Z,21.34
2022-09-04T04:09:02.084Z,21.36
2022-09-04T04:11:41.344Z,21.36
2022-09-04T04:14:37.571Z,21.24
2022-09-04T04:17:20.709Z,21.25
2022-09-04T04:19:48.113Z,21.14
2022-09-04T04:22:45.562Z,21.18
2022-09-04T04:25:24.495Z,21.19
2022-09-04T04:28:17.276Z,21.00
2022-09-04T04:30:47.656Z,21.02
2022-09-04T04:33:24.021Z,20.89
2022-09-04T04:36:06.701Z,20.73
2022-09-04T04:38:39.708Z,20.74
2022-09-04T04:41:55.401Z,20.76
2022-09-04T04:44:51.024Z,20.93
2022-09-04T04:47:59.491Z,20.94
2022-09-04T04:50:46.156Z,20.82
2022-09-04T04:53:30.593Z,20.82
2022-09-04T04:56:15.653Z,20.82
2022-09-04T04:59:09.073Z,20.87
2022-09-04T05:02:04.786Z,20.70
2022-09-04T05:04:46.141Z,20.71
2022-09-04T05:07:34.677Z,20.95
2022-09-04T05:10:11.084Z,20.89
2022-09-04T05:13:01.567Z,21.00
2022-09-04T05:15:28.930Z,20.98
2022-09-04T05:18:02.043Z,21.01
2022-09-04T05:20:50.281Z,20.91
2022-09-04T05:23:28.701Z,20.76
2022-09-04T05:26:33.167Z,20.69
2022-09-04T05:29:03.161Z,20.78
2022-09-04T05:32:01.503Z,21.08
2022-09-04T05:35:04.369Z,21.35
2022-09-04T05:37:45.197Z,21.37
2022-09-04T05:40:15.672Z,21.44
2022-09-04T05:43:11.395Z,21.71
2022-09-04T05:45:54.026Z,21.79
2022-09-04T05:49:09.011Z,21.76
2022-09-04T05:52:07.464Z,21.64
2022-09-04T05:55:01.132Z,21.85
2022-09-04T05:57:56.495Z,21.49
2022-09-04T06:00:25.746Z,21.32
2022-09-04T06:02:59.196Z,21.32
2022-09-04T06:05:33.348Z,21.54
2022-09-04T06:08:27.830Z,21.28
2022-09-04T06:11:23.744Z,21.49
2022-09-04T06:14:17.436Z,21.39
2022-09-04T06:16:54.255Z,21.46
2022-09-04T06:20:00.381Z,21.37
2022-09-04T06:22:48.518Z,21.47
2022-09-04T06:25:41.537Z,21.43
2022-09-04T06:28:12.024Z,21.61
2022-09-04T06:31:04.552Z,21.56
2022-09-04T06:33:40.744Z,21.98
2022-09-04T06:36:32.471Z,22.35
2022-09-04T06:39:21.845Z,23.00
2022-09-04T06:41:52.097Z,23.68
2022-09-04T06:44:50.433Z,24.69
2022-09-04T06:47:34.841Z,26.06
2022-09-04T06:50:18.695Z,27.21
2022-09-04T06:53:03.503Z,27.38
2022-09-04T06:55:48.158Z,26.85
2022-09-04T06:58:57.977Z,26.17
2022-09-04T07:01:46.937Z,25.27
2022-09-04T07:04:28.386Z,24.86
2022-09-04T07:07:32.856Z,24.62
2022-09-04T07:10:10.574Z,24.57
2022-09-04T07:12:59.589Z,24.45
2022-09-04T07:15:48.361Z,24.60
2022-09-04T07:18:51.517Z,25.81
2022-09-04T07:21:49.576Z,26.42
2022-09-04T07:24:26.949Z,26.05
2022-09-04T07:27:36.004Z,26.67
2022-09-04T07:30:14.529Z,27.11
2022-09-04T07:33:04.624Z,26.51
2022-09-04T07:35:42.275Z,27.47
2022-09-04T07:38:21.953Z,27.93
2022-09-04T07:41:03.625Z,28.34
2022-09-04T07:44:04.751Z,28.60
2022-09-04T07:47:18.072Z,28.79
2022-09-04T07:49:54.095Z,28.18
2022-09-04T07:52:32.967Z,27.83
2022-09-04T07:55:17.256Z,27.93
2022-09-04T07:57:44.774Z,27.71
2022-09-04T08:00:18.084Z,27.86
2022-09-04T08:02:56.562Z,28.02
2022-09-04T08:05:34.355Z,28.67
2022-09-04T08:08:14.034Z,29.54
2022-09-04T08:11:11.970Z,29.53
2022-09-04T08:14:00.436Z,28.32
2022-09-04T08:16:36.834Z,28.12
2022-09-04T08:19:11.556Z,27.06
2022-09-04T08:21:45.024Z,26.58
2022-09-04T08:24:15.386Z,26.34
2022-09-04T08:27:16.015Z,26.20
2022-09-04T08:29:54.961Z,27.36
2022-09-04T08:32:53.356Z,29.20
2022-09-04T08:35:36.613Z,30.10
2022-09-04T08:38:43.331Z,30.17
2022-09-04T08:41:30.516Z,31.04
2022-09-04T08:44:38.831Z,31.57
2022-09-04T08:47:26.820Z,31.59
2022-09-04T08:50:09.676Z,31.90
2022-09-04T08:53:09.924Z,31.63
2022-09-04T08:55:56.076Z,32.82
2022-09-04T08:58:48.407Z,32.31
2022-09-04T09:01:41.665Z,32.57
2022-09-04T09:04:27.466Z,32.65
2022-09-04T09:07:26.238Z,32.55
2022-09-04T09:10:03.646Z,32.71
2022-09-04T09:12:42.902Z,32.81
2022-09-04T09:15:29.299Z,32.90
2022-09-04T09:18:36.160Z,33.85
2022-09-04T09:21:11.915Z,34.36
2022-09-04T09:24:14.499Z,34.06
2022-09-04T09:27:22.730Z,33.79
2022-09-04T09:30:05.403Z,33.36
2022-09-04T09:33:04.981Z,33.72
2022-09-04T09:36:16.203Z,33.97
2022-09-04T09:39:22.584Z,33.42
2022-09-04T09:42:07.229Z,34.06
2022-09-04T09:44:59.619Z,33.15
2022-09-04T09:47:51.502Z,33.40
2022-09-04T09:51:02.754Z,33.03
2022-09-04T09:53:47.547Z,32.36
2022-09-04T09:56:21.072Z,30.41
2022-09-04T09:59:20.027Z,29.47
2022-09-04T10:02:19.787Z,28.51
2022-09-04T10:05:24.174Z,27.94
2022-09-04T10:08:15.143Z,27.59
2022-09-04T10:11:18.617Z,27.74
2022-09-04T10:14:17.477Z,28.08
2022-09-04T10:17:16.091Z,29.63
2022-09-04T10:19:50.398Z,31.38
2022-09-04T10:22:33.884Z,30.30
2022-09-04T10:25:10.982Z,29.73
2022-09-04T10:27:46.672Z,29.00
2022-09-04T10:30:20.663Z,28.64
2022-09-04T10:33:11.394Z,28.27
2022-09-04T10:35:55.736Z,28.76
2022-09-04T10:38:34.392Z,28.27
2022-09-04T10:41:17.410Z,28.24
2022-09-04T10:44:03.689Z,28.83
2022-09-04T10:47:00.720Z,30.61
2022-09-04T10:49:41.756Z,31.92
2022-09-04T10:52:37.994Z,32.31
2022-09-04T10:55:31.565Z,31.36
2022-09-04T10:58:10.467Z,31.61
2022-09-04T11:00:50.184Z,31.63
2022-09-04T11:03:46.198Z,30.38
2022-09-04T11:06:49.397Z,31.31
2022-09-04T11:09:49.800Z,31.31
2022-09-04T11:12:35.891Z,30.53
2022-09-04T11:15:08.965Z,30.37
2022-09-04T11:18:01.194Z,30.79
2022-09-04T11:20:40.841Z,31.37
2022-09-04T11:23:45.930Z,31.62
2022-09-04T11:26:23.606Z,32.08
2022-09-04T11:29:31.070Z,31.89
2022-09-04T11:32:23.690Z,32.26
2022-09-04T11:35:03.170Z,32.13
2022-09-04T11:37:36.451Z,32.33
2022-09-04T11:40:42.462Z,32.31
2022-09-04T11:43:19.247Z,31.62
2022-09-04T11:45:54.437Z,32.16
2022-09-04T11:48:57.296Z,32.03
2022-09-04T11:51:37.244Z,31.81
2022-09-04T11:54:43.251Z,31.57
2022-09-04T11:57:38.655Z,31.29
2022-09-04T12:00:18.297Z,31.56
2022-09-04T12:03:09.134Z,31.66
2022-09-04T12:05:39.727Z,31.83
2022-09-04T12:08:17.941Z,32.05
2022-09-04T12:10:49.713Z,31.92
2022-09-04T12:13:29.463Z,32.00
2022-09-04T12:16:08.177Z,32.27
2022-09-04T12:19:13.575Z,32.07
2022-09-04T12:22:19.679Z,32.73
2022-09-04T12:25:25.180Z,32.53
2022-09-04T12:28:40.399Z,31.78
2022-09-04T12:31:32.534Z,30.41
2022-09-04T12:34:22.216Z,29.92
2022-09-04T12:37:08.209Z,29.53
2022-09-04T12:39:45.023Z,29.00
2022-09-04T12:42:39.066Z,29.39
2022-09-04T12:45:36.669Z,30.57
2022-09-04T12:48:13.886Z,31.31
2022-09-04T12:51:05.956Z,31.27
2022-09-04T12:53:52.553Z,31.29
2022-09-04T12:56:45.321Z,31.26
2022-09-04T12:59:40.453Z,31.80
2022-09-04T13:02:34.072Z,32.03
2022-09-04T13:05:26.510Z,32.05
2022-09-04T13:08:28.416Z,32.29
2022-09-04T13:11:07.795Z,32.01
2022-09-04T13:13:42.229Z,31.94
2022-09-04T13:16:22.280Z,32.19
2022-09-04T13:19:16.400Z,32.10
2022-09-04T13:22:24.395Z,31.97
2022-09-04T13:25:19.181Z,32.17
2022-09-04T13:28:16.907Z,32.22
2022-09-04T13:31:16.224Z,31.98
2022-09-04T13:34:01.831Z,31.98
2022-09-04T13:37:11.117Z,32.15
2022-09-04T13:39:56.164Z,32.07
2022-09-04T13:42:55.663Z,31.82
2022-09-04T13:45:30.140Z,31.84
2022-09-04T13:48:12.713Z,31.89
2022-09-04T13:50:43.818Z,31.59
2022-09-04T13:53:21.548Z,31.53
2022-09-04T13:56:01.260Z,31.45
2022-09-04T13:58:43.242Z,31.51
2022-09-04T14:01:16.981Z,31.57
2022-09-04T14:03:56.486Z,31.54
2022-09-04T14:06:27.001Z,31.72
2022-09-04T14:09:05.623Z,31.44
2022-09-04T14:11:39.385Z,31.54
2022-09-04T14:14:33.235Z,31.49
2022-09-04T14:17:00.933Z,31.59
2022-09-04T14:19:35.771Z,31.74
2022-09-04T14:22:33.596Z,31.55
2022-09-04T14:25:11.720Z,31.78
2022-09-04T14:27:51.703Z,31.89
2022-09-04T14:30:23.479Z,32.02
2022-09-04T14:32:57.688Z,32.03
2022-09-04T14:35:35.858Z,31.97
2022-09-04T14:38:27.855Z,31.62
2022-09-04T14:41:16.278Z,31.46
2022-09-04T14:44:06.842Z,31.25
2022-09-04T14:47:12.148Z,31.04
2022-09-04T14:49:48.339Z,31.16
2022-09-04T14:52:21.675Z,31.02
2022-09-04T14:54:55.051Z,30.89
2022-09-04T14:57:42.254Z,30.89
2022-09-04T15:00:20.848Z,30.70
2022-09-04T15:02:54.286Z,30.44
2022-09-04T15:05:30.595Z,30.05
2022-09-04T15:08:02.476Z,29.86
2022-09-04T15:10:50.909Z,29.54
2022-09-04T15:13:27.295Z,29.28
2022-09-04T15:16:10.028Z,29.35
2022-09-04T15:18:40.785Z,29.36
2022-09-04T15:21:12.352Z,29.62
2022-09-04T15:23:53.028Z,29.91
2022-09-04T15:26:46.705Z,30.15
2022-09-04T15:29:40.698Z,30.18
2022-09-04T15:32:13.816Z,30.46
2022-09-04T15:34:42.083Z,30.20
2022-09-04T15:37:16.364Z,30.02
2022-09-04T15:39:53.947Z,29.82
2022-09-04T15:43:01.522Z,29.90
2022-09-04T15:45:47.202Z,29.89
2022-09-04T15:48:29.779Z,30.04
2022-09-04T15:51:29.102Z,29.92
2022-09-04T15:54:15.473Z,30.06
2022-09-04T15:56:55.076Z,29.89
2022-09-04T15:59:40.840Z,29.66
2022-09-04T16:02:18.689Z,29.61
2022-09-04T16:05:25.243Z,29.63
2022-09-04T16:08:33.133Z,29.55
2022-09-04T16:11:11.395Z,29.42
2022-09-04T16:14:00.553Z,29.39
2022-09-04T16:16:48.610Z,29.40
2022-09-04T16:19:22.831Z,29.41
2022-09-04T16:22:02.857Z,29.39
2022-09-04T16:24:47.939Z,29.38
2022-09-04T16:27:22.928Z,29.20
2022-09-04T16:29:57.807Z,29.26
2022-09-04T16:32:28.408Z,29.06
2022-09-04T16:35:01.653Z,29.14
2022-09-04T16:37:35.118Z,29.09
2022-09-04T16:40:24.806Z,29.23
2022-09-04T16:43:02.153Z,29.02
2022-09-04T16:45:51.073Z,28.95
2022-09-04T16:48:35.349Z,28.95
2022-09-04T16:51:40.165Z,28.77
2022-09-04T16:54:17.031Z,28.73
2022-09-04T16:56:51.111Z,28.75
2022-09-04T16:59:57.481Z,28.67
2022-09-04T17:02:36.041Z,28.57
2022-09-04T17:05:43.067Z,28.42
2022-09-04T17:08:32.849Z,28.35
2022-09-04T17:11:29.253Z,28.46
2022-09-04T17:14:13.985Z,28.33
2022-09-04T17:16:59.454Z,28.15
2022-09-04T17:19:27.530Z,27.91
2022-09-04T17:28:55.847Z,27.81
2022-09-04T17:29:08.640Z,27.69
2022-09-04T17:29:15.598Z,27.76
2022-09-04T17:31:29.065Z,27.56
2022-09-04T17:38:42.736Z,27.40
2022-09-04T17:40:39.971Z,27.40
2022-09-04T17:40:46.714Z,27.31
2022-09-04T17:43:27.830Z,27.31
2022-09-04T17:46:10.900Z,27.29
2022-09-04T17:48:42.455Z,27.30
2022-09-04T17:51:25.671Z,27.23
2022-09-04T17:53:58.422Z,27.19
2022-09-04T17:56:36.959Z,27.14
2022-09-04T17:59:19.843Z,27.05
2022-09-04T18:02:21.684Z,27.09
2022-09-04T18:05:02.766Z,27.03
2022-09-04T18:08:07.259Z,26.99
2022-09-04T18:10:32.625Z,26.85
2022-09-04T18:13:39.461Z,26.77
2022-09-04T18:16:28.652Z,26.74
2022-09-04T18:19:20.968Z,26.64
2022-09-04T18:22:26.600Z,26.63
2022-09-04T18:25:16.202Z,26.63
2022-09-04T18:28:12.321Z,26.64
2022-09-04T18:37:05.871Z,26.75
2022-09-04T18:37:20.116Z,26.69
2022-09-04T18:37:44.186Z,26.52
2022-09-04T18:40:17.531Z,26.38
2022-09-04T18:50:25.100Z,26.19
2022-09-04T18:50:40.371Z,26.17
2022-09-04T18:50:44.114Z,26.07
2022-09-04T18:52:03.483Z,26.20
2022-09-04T18:54:39.770Z,26.23
2022-09-04T18:57:33.542Z,26.27
2022-09-04T19:00:11.455Z,26.14
2022-09-04T19:02:53.091Z,25.92
2022-09-04T19:05:36.450Z,25.91
2022-09-04T19:08:22.100Z,25.88
2022-09-04T19:10:55.067Z,25.79
2022-09-04T19:13:36.292Z,25.70
2022-09-04T19:16:20.217Z,25.68
2022-09-04T19:19:23.532Z,25.51
2022-09-04T19:22:09.368Z,25.51
2022-09-04T19:24:50.244Z,25.36
2022-09-04T19:27:28.509Z,25.24
2022-09-04T19:30:18.354Z,25.24
2022-09-04T19:32:59.929Z,25.26
2022-09-04T19:36:08.203Z,25.29
2022-09-04T19:45:54.699Z,25.19
2022-09-04T19:46:09.597Z,25.16
2022-09-04T19:46:11.719Z,25.13
2022-09-04T19:47:51.399Z,25.16
2022-09-04T19:53:22.726Z,25.18
2022-09-04T19:53:50.219Z,25.17
2022-09-04T19:56:27.032Z,25.11
2022-09-04T19:59:05.468Z,25.07
2022-09-04T20:01:53.455Z,24.98
2022-09-04T20:04:47.872Z,24.98
2022-09-04T20:07:46.359Z,24.84
2022-09-04T20:10:37.862Z,24.87
2022-09-04T20:13:23.905Z,24.85
2022-09-04T20:16:16.297Z,24.83
2022-09-04T20:18:53.658Z,24.90
2022-09-04T20:21:27.370Z,24.83
2022-09-04T20:24:01.805Z,24.72
2022-09-04T20:26:34.519Z,24.70
2022-09-04T20:29:23.713Z,24.62
2022-09-04T20:32:00.406Z,24.58
2022-09-04T20:34:39.959Z,24.53
2022-09-04T20:37:28.430Z,24.58
2022-09-04T20:40:04.610Z,24.60
2022-09-04T20:42:56.571Z,24.68
2022-09-04T20:48:43.308Z,24.62
2022-09-04T20:52:46.108Z,24.58
2022-09-04T20:52:55.885Z,24.68
2022-09-04T20:54:50.954Z,24.68
2022-09-04T21:03:07.378Z,24.69
2022-09-04T21:03:21.973Z,24.36
2022-09-04T21:03:52.203Z,24.17
2022-09-04T21:06:38.527Z,24.31
2022-09-04T21:09:18.751Z,24.40
2022-09-04T21:11:51.770Z,24.27
2022-09-04T21:14:44.851Z,24.50
2022-09-04T21:17:43.502Z,24.40
2022-09-04T21:20:34.925Z,24.56
2022-09-04T21:23:30.169Z,24.85
2022-09-04T21:26:06.589Z,24.73
2022-09-04T21:29:11.240Z,24.67
2022-09-04T21:31:48.475Z,24.66
2022-09-04T21:35:04.713Z,24.54
2022-09-04T21:37:53.860Z,24.43
2022-09-04T21:40:51.675Z,24.24
2022-09-04T21:43:35.704Z,24.07
2022-09-04T21:46:20.965Z,24.09
2022-09-04T21:49:26.778Z,24.19
2022-09-04T21:52:03.697Z,24.26
2022-09-04T21:57:13.550Z,24.30
2022-09-04T22:02:32.145Z,24.38
2022-09-04T22:02:44.811Z,24.38
2022-09-04T22:04:29.104Z,24.52
2022-09-04T22:12:01.573Z,24.27
2022-09-04T22:13:27.261Z,24.41
2022-09-04T22:13:40.327Z,24.32
2022-09-04T22:16:30.088Z,24.24
2022-09-04T22:19:16.231Z,24.06
2022-09-04T22:22:05.680Z,23.96
2022-09-04T22:25:05.899Z,24.06
2022-09-04T22:28:08.870Z,24.03
2022-09-04T22:30:46.630Z,23.98
2022-09-04T22:34:15.283Z,24.21
2022-09-04T22:37:09.837Z,24.22
2022-09-04T22:39:40.640Z,24.24
2022-09-04T22:42:30.587Z,23.94
2022-09-04T22:45:35.511Z,23.92
2022-09-04T22:48:24.610Z,23.85
2022-09-04T22:51:19.707Z,23.85
2022-09-04T22:54:23.519Z,23.80
2022-09-04T22:57:12.497Z,23.72
2022-09-04T23:00:00.740Z,23.78
2022-09-04T23:03:16.409Z,23.65
2022-09-04T23:08:21.639Z,23.61
2022-09-04T23:13:52.087Z,23.53
2022-09-04T23:14:01.801Z,23.67
2022-09-04T23:16:04.194Z,23.61
2022-09-04T23:19:55.330Z,23.57
2022-09-04T23:26:38.229Z,23.56
2022-09-04T23:26:49.802Z,23.55
2022-09-04T23:28:27.225Z,23.39
2022-09-04T23:31:19.959Z,23.39
2022-09-04T23:34:14.830Z,23.42
2022-09-04T23:36:42.080Z,23.38
2022-09-04T23:39:42.963Z,23.22
2022-09-04T23:42:25.678Z,23.28
2022-09-04T23:45:05.401Z,23.30
2022-09-04T23:47:51.650Z,23.35
2022-09-04T23:50:27.037Z,23.36
2022-09-04T23:53:19.077Z,23.35
2022-09-04T23:56:12.330Z,23.30
2022-09-04T23:59:26.542Z,23.35
